Time;durP1;ratioP1;P1;durP2;ratioP2;P2;SDS_P1;SDS_P2;PMS_P1;PMS_P2;Temp;Humidity;BMP_temperature;BMP_pressure;BME280_temperature;BME280_humidity;BME280_pressure;Samples;Min_cycle;Max_cycle;Signal;HPM_P1;HPM_P2
2021/03/29 00:02:13;;;;;;;17.70;11.98;;;7.90;90.30;;;;;;4987793;28;20230;-63
2021/03/29 00:04:40;;;;;;;20.88;12.48;;;8.00;90.10;;;;;;4996899;28;20362;-64
2021/03/29 00:07:07;;;;;;;17.15;12.25;;;8.30;89.00;;;;;;4997392;28;20220;-63
2021/03/29 00:09:39;;;;;;;16.75;11.77;;;8.10;89.60;;;;;;4997188;28;20400;-63
2021/03/29 00:12:08;;;;;;;16.60;12.13;;;8.00;90.20;;;;;;4997876;28;20209;-63
2021/03/29 00:14:36;;;;;;;19.13;11.15;;;8.10;90.20;;;;;;4985781;28;20326;-63
2021/03/29 00:17:04;;;;;;;23.70;11.65;;;8.40;89.40;;;;;;4997908;28;20760;-63
2021/03/29 00:19:32;;;;;;;13.50;10.07;;;8.70;88.20;;;;;;4988461;28;20230;-62
2021/03/29 00:21:59;;;;;;;20.65;11.43;;;8.90;87.40;;;;;;4994439;28;20214;-64
2021/03/29 00:24:26;;;;;;;19.45;12.57;;;9.10;86.60;;;;;;4994304;28;20213;-63
2021/03/29 00:26:53;;;;;;;18.23;11.40;;;9.10;86.50;;;;;;5014925;28;20214;-63
2021/03/29 00:29:20;;;;;;;21.02;11.93;;;9.20;86.20;;;;;;5001125;28;20230;-63
2021/03/29 00:31:47;;;;;;;18.92;12.55;;;9.00;87.10;;;;;;5015339;28;20402;-62
2021/03/29 00:34:14;;;;;;;17.63;13.00;;;8.50;89.50;;;;;;5002311;28;20234;-63
2021/03/29 00:36:41;;;;;;;24.73;13.65;;;8.70;90.00;;;;;;5000717;28;20210;-63
2021/03/29 00:39:10;;;;;;;20.10;12.73;;;9.00;88.80;;;;;;4990809;28;20227;-63
2021/03/29 00:41:37;;;;;;;27.27;16.80;;;9.20;88.00;;;;;;4982142;28;20421;-63
2021/03/29 00:44:06;;;;;;;20.38;13.63;;;9.20;87.60;;;;;;5001062;28;20202;-63
2021/03/29 00:46:34;;;;;;;26.15;11.90;;;8.70;89.80;;;;;;4997335;28;20209;-63
2021/03/29 00:49:02;;;;;;;18.48;11.23;;;8.80;90.10;;;;;;5000621;28;20237;-63
2021/03/29 00:51:30;;;;;;;15.30;10.80;;;8.90;89.30;;;;;;5000853;28;20266;-63
2021/03/29 00:53:59;;;;;;;12.95;9.55;;;8.90;89.10;;;;;;5000387;28;20380;-63
2021/03/29 00:56:27;;;;;;;12.45;9.93;;;8.50;88.40;;;;;;5000361;28;20211;-63
2021/03/29 00:58:55;;;;;;;16.48;9.85;;;9.10;88.00;;;;;;5000896;28;20244;-62
2021/03/29 01:01:23;;;;;;;11.68;8.75;;;8.90;89.40;;;;;;4997449;28;20238;-64
2021/03/29 01:03:54;;;;;;;12.32;10.52;;;9.00;88.70;;;;;;5014882;28;20217;-64
2021/03/29 01:06:23;;;;;;;12.77;9.38;;;8.80;89.20;;;;;;4999682;28;20267;-63
2021/03/29 01:08:53;;;;;;;16.00;9.82;;;8.70;89.80;;;;;;5010656;28;20702;-63
2021/03/29 01:11:26;;;;;;;13.68;9.63;;;8.70;90.00;;;;;;5016048;28;20443;-63
2021/03/29 01:14:01;;;;;;;14.70;9.45;;;8.60;90.20;;;;;;4999286;28;20278;-63
2021/03/29 01:16:32;;;;;;;17.17;13.57;;;8.40;90.40;;;;;;4999450;28;20208;-62
2021/03/29 01:19:00;;;;;;;23.48;14.88;;;8.40;90.30;;;;;;5000067;28;20568;-63
2021/03/29 01:21:56;;;;;;;18.55;13.95;;;8.40;90.30;;;;;;5014833;28;20205;-64
2021/03/29 01:24:25;;;;;;;16.42;10.57;;;8.40;90.50;;;;;;5006832;28;20481;-62
2021/03/29 01:26:53;;;;;;;20.10;11.32;;;8.40;90.70;;;;;;5017486;28;20253;-62
2021/03/29 01:29:22;;;;;;;16.50;10.35;;;8.30;90.80;;;;;;5008532;28;20212;-63
2021/03/29 01:31:49;;;;;;;25.45;10.18;;;8.40;90.70;;;;;;4999194;28;20721;-63
2021/03/29 01:34:17;;;;;;;15.95;9.32;;;8.40;90.50;;;;;;4999961;28;20267;-63
2021/03/29 01:36:45;;;;;;;9.82;8.40;;;8.50;90.30;;;;;;4986313;28;20214;-63
2021/03/29 01:39:15;;;;;;;12.82;8.65;;;8.50;90.10;;;;;;5000012;28;20252;-63
2021/03/29 01:41:42;;;;;;;12.27;9.13;;;8.50;90.20;;;;;;4999283;28;20512;-63
2021/03/29 01:44:09;;;;;;;13.40;9.70;;;8.50;90.20;;;;;;4998772;28;20207;-63
2021/03/29 01:46:36;;;;;;;13.63;9.13;;;7.80;90.20;;;;;;4987728;28;20215;-63
2021/03/29 01:49:04;;;;;;;18.60;9.75;;;8.50;90.30;;;;;;4988494;28;20243;-63
2021/03/29 01:51:31;;;;;;;14.75;9.10;;;8.50;90.20;;;;;;4999893;28;20215;-63
2021/03/29 01:53:59;;;;;;;11.95;10.30;;;8.50;90.20;;;;;;4996900;28;20221;-64
2021/03/29 01:56:26;;;;;;;14.38;8.80;;;8.60;90.00;;;;;;4983074;28;20211;-63
2021/03/29 01:58:53;;;;;;;12.55;8.98;;;8.60;90.20;;;;;;5008579;28;20201;-63
2021/03/29 02:01:19;;;;;;;15.23;8.10;;;8.60;90.10;;;;;;5000064;28;20222;-63
2021/03/29 02:03:48;;;;;;;17.88;9.18;;;8.50;90.20;;;;;;4986954;28;20535;-64
2021/03/29 02:06:15;;;;;;;10.40;8.10;;;8.60;90.20;;;;;;4999003;28;20505;-63
2021/03/29 02:08:43;;;;;;;11.70;8.18;;;8.50;90.40;;;;;;4999005;28;20211;-62
2021/03/29 02:11:11;;;;;;;10.75;7.93;;;8.60;90.30;;;;;;5012780;28;20215;-63
2021/03/29 02:13:42;;;;;;;16.05;9.13;;;8.70;90.20;;;;;;5017841;28;20281;-63
2021/03/29 02:16:12;;;;;;;10.02;8.07;;;8.60;90.50;;;;;;4996859;28;20215;-63
2021/03/29 02:18:55;;;;;;;11.32;8.07;;;8.50;90.70;;;;;;4997466;28;20207;-63
2021/03/29 02:21:31;;;;;;;10.50;8.55;;;8.50;90.90;;;;;;4999043;28;20226;-62
2021/03/29 02:23:58;;;;;;;9.40;7.82;;;8.40;90.90;;;;;;5003678;28;20224;-63
2021/03/29 02:26:28;;;;;;;16.50;7.43;;;8.40;91.10;;;;;;5007019;28;20741;-63
2021/03/29 02:28:56;;;;;;;10.93;7.45;;;8.50;91.00;;;;;;4998552;28;20274;-64
2021/03/29 02:31:27;;;;;;;11.98;7.00;;;8.70;90.60;;;;;;4984713;28;20246;-64
2021/03/29 02:33:56;;;;;;;9.25;6.40;;;8.70;90.50;;;;;;4999016;28;20214;-63
2021/03/29 02:36:23;;;;;;;7.93;6.63;;;8.80;90.50;;;;;;4998183;28;20221;-63
2021/03/29 02:38:51;;;;;;;11.32;6.75;;;8.70;90.60;;;;;;4998488;28;20521;-64
2021/03/29 02:41:29;;;;;;;9.07;6.90;;;8.80;90.50;;;;;;5012774;28;20202;-63
2021/03/29 02:43:58;;;;;;;15.88;7.95;;;8.70;90.50;;;;;;4992438;28;20221;-63
2021/03/29 02:46:30;;;;;;;16.52;7.57;;;8.50;90.80;;;;;;5011802;28;20542;-63
2021/03/29 02:49:00;;;;;;;11.75;6.50;;;8.50;91.00;;;;;;4998453;28;20243;-63
2021/03/29 02:51:27;;;;;;;14.23;6.43;;;8.50;90.70;;;;;;4988190;28;20215;-63
2021/03/29 02:54:08;;;;;;;9.63;6.75;;;8.70;90.50;;;;;;4998460;28;20498;-63
2021/03/29 02:56:39;;;;;;;15.60;8.30;;;8.90;90.00;;;;;;4998532;28;20197;-63
2021/03/29 02:59:15;;;;;;;10.25;7.30;;;8.90;90.10;;;;;;4985387;28;20233;-63
2021/03/29 03:01:43;;;;;;;9.38;7.40;;;8.80;90.30;;;;;;4998064;28;20420;-63
2021/03/29 03:04:12;;;;;;;13.40;7.43;;;8.60;90.60;;;;;;4984529;28;20213;-62
2021/03/29 03:06:39;;;;;;;9.60;6.68;;;8.60;90.70;;;;;;4998595;28;20203;-62
2021/03/29 03:09:09;;;;;;;12.07;7.05;;;8.70;90.50;;;;;;4997612;28;20210;-64
2021/03/29 03:11:36;;;;;;;18.70;7.53;;;8.80;90.40;;;;;;4987153;28;20227;-64
2021/03/29 03:14:07;;;;;;;10.63;7.20;;;8.70;90.50;;;;;;4995177;28;20221;-63
2021/03/29 03:16:38;;;;;;;9.45;6.82;;;9.00;90.00;;;;;;4997516;28;20279;-63
2021/03/29 03:19:06;;;;;;;10.45;7.05;;;8.80;90.20;;;;;;4992600;28;20576;-63
2021/03/29 03:21:34;;;;;;;15.02;7.72;;;8.90;90.10;;;;;;5005822;28;20221;-63
2021/03/29 03:24:02;;;;;;;9.38;7.85;;;9.00;89.30;;;;;;5006278;28;20274;-63
2021/03/29 03:26:29;;;;;;;8.77;6.63;;;9.00;89.50;;;;;;4980720;28;20218;-63
2021/03/29 03:28:56;;;;;;;13.60;7.43;;;9.00;89.30;;;;;;5011953;28;20238;-63
2021/03/29 03:31:24;;;;;;;10.38;6.00;;;9.00;89.20;;;;;;4997896;28;20546;-63
2021/03/29 03:33:51;;;;;;;12.73;6.38;;;9.10;89.20;;;;;;4997417;28;20420;-63
2021/03/29 03:36:22;;;;;;;14.73;7.20;;;9.00;89.00;;;;;;4983396;28;20393;-64
2021/03/29 03:38:51;;;;;;;9.05;6.25;;;8.90;89.30;;;;;;4998003;28;20214;-63
2021/03/29 03:41:30;;;;;;;13.88;8.05;;;8.90;89.50;;;;;;4997274;28;20211;-62
2021/03/29 03:43:58;;;;;;;9.45;6.10;;;8.90;89.50;;;;;;4980418;28;20210;-62
2021/03/29 03:46:30;;;;;;;7.82;6.50;;;8.90;89.80;;;;;;4996343;28;20212;-64
2021/03/29 03:49:03;;;;;;;8.48;6.85;;;9.00;89.10;;;;;;4997149;28;20273;-63
2021/03/29 03:51:30;;;;;;;13.73;6.97;;;9.20;88.80;;;;;;4997504;28;20225;-63
2021/03/29 03:53:58;;;;;;;11.57;7.57;;;9.00;89.60;;;;;;4997806;28;20281;-63
2021/03/29 03:56:25;;;;;;;17.63;8.07;;;8.80;90.00;;;;;;5008717;28;20217;-64
2021/03/29 03:58:53;;;;;;;10.20;7.82;;;8.90;90.00;;;;;;4994235;28;20206;-63
2021/03/29 04:01:20;;;;;;;12.50;7.22;;;9.00;89.40;;;;;;5001443;28;20239;-63
2021/03/29 04:03:47;;;;;;;7.63;6.13;;;9.10;89.30;;;;;;5001069;28;20212;-63
2021/03/29 04:06:13;;;;;;;15.52;7.95;;;8.90;89.90;;;;;;5001317;28;20207;-63
2021/03/29 04:08:44;;;;;;;9.13;7.57;;;9.00;89.40;;;;;;5008907;28;20207;-64
2021/03/29 04:11:11;;;;;;;13.38;6.78;;;9.20;88.80;;;;;;5013707;28;20214;-63
2021/03/29 04:13:38;;;;;;;19.92;7.97;;;9.40;87.40;;;;;;4996554;28;20212;-63
2021/03/29 04:16:06;;;;;;;16.13;7.15;;;9.30;87.80;;;;;;5000651;28;20224;-64
2021/03/29 04:18:34;;;;;;;15.45;7.40;;;9.50;87.20;;;;;;4990138;28;20712;-63
2021/03/29 04:21:03;;;;;;;13.38;7.20;;;9.50;87.50;;;;;;5001055;28;20492;-61
2021/03/29 04:23:30;;;;;;;9.90;7.95;;;9.30;86.90;;;;;;5000834;28;20217;-63
2021/03/29 04:25:57;;;;;;;13.90;7.55;;;9.30;88.00;;;;;;5008342;28;20238;-63
2021/03/29 04:28:24;;;;;;;14.48;8.25;;;9.30;87.60;;;;;;5008964;28;20281;-61
2021/03/29 04:30:51;;;;;;;12.90;8.02;;;9.50;87.40;;;;;;5005464;28;20302;-62
2021/03/29 04:33:19;;;;;;;15.48;7.45;;;9.60;87.10;;;;;;4983399;28;20534;-61
2021/03/29 04:35:47;;;;;;;13.57;7.10;;;9.70;86.50;;;;;;5000883;28;20230;-62
2021/03/29 04:38:14;;;;;;;18.85;8.70;;;9.70;86.70;;;;;;4995080;28;20208;-62
2021/03/29 04:40:40;;;;;;;12.45;6.85;;;9.50;87.90;;;;;;4992393;28;20575;-63
2021/03/29 04:43:09;;;;;;;15.95;8.63;;;9.50;87.80;;;;;;4995498;28;20528;-65
2021/03/29 04:45:37;;;;;;;13.65;7.70;;;9.80;86.40;;;;;;4997899;28;20277;-62
2021/03/29 04:48:04;;;;;;;11.52;7.95;;;9.70;86.00;;;;;;4999130;28;20254;-64
2021/03/29 04:50:31;;;;;;;12.82;7.95;;;9.90;86.00;;;;;;4997864;28;20265;-64
2021/03/29 04:52:57;;;;;;;18.52;8.05;;;9.90;85.50;;;;;;4988370;28;20230;-64
2021/03/29 04:55:24;;;;;;;18.80;9.30;;;10.10;85.40;;;;;;4992885;28;20210;-63
2021/03/29 04:57:50;;;;;;;22.90;9.10;;;9.90;86.40;;;;;;5000982;28;20438;-64
2021/03/29 05:00:18;;;;;;;18.13;8.68;;;10.00;85.50;;;;;;5008354;28;20239;-63
2021/03/29 05:02:44;;;;;;;10.40;7.93;;;10.10;85.30;;;;;;4999594;28;20234;-65
2021/03/29 05:05:11;;;;;;;17.55;9.20;;;10.30;84.50;;;;;;4999717;28;20506;-63
2021/03/29 05:07:38;;;;;;;17.05;7.70;;;10.30;84.50;;;;;;4998320;28;20232;-65
2021/03/29 05:10:12;;;;;;;11.77;8.05;;;10.50;83.90;;;;;;5007979;28;20407;-63
2021/03/29 05:12:39;;;;;;;10.00;7.82;;;10.70;83.10;;;;;;5007169;28;20267;-63
2021/03/29 05:15:07;;;;;;;22.35;8.25;;;10.80;82.60;;;;;;5007943;28;20230;-64
2021/03/29 05:17:34;;;;;;;15.65;8.75;;;11.00;82.00;;;;;;5000875;28;20214;-65
2021/03/29 05:20:04;;;;;;;17.08;8.88;;;11.20;81.30;;;;;;5012787;28;20223;-64
2021/03/29 05:22:30;;;;;;;16.48;8.63;;;11.20;81.10;;;;;;4999735;28;20268;-64
2021/03/29 05:24:57;;;;;;;17.27;7.88;;;11.40;80.60;;;;;;5012692;28;20208;-63
2021/03/29 05:27:23;;;;;;;17.50;9.52;;;11.40;80.30;;;;;;5001130;28;20246;-64
2021/03/29 05:29:51;;;;;;;15.50;9.20;;;11.50;80.10;;;;;;5014983;28;20235;-63
2021/03/29 05:32:22;;;;;;;25.90;10.75;;;11.50;79.50;;;;;;5017234;28;20218;-63
2021/03/29 05:34:51;;;;;;;23.63;9.95;;;11.70;79.20;;;;;;5011261;28;20207;-63
2021/03/29 05:37:19;;;;;;;27.08;9.70;;;11.70;79.20;;;;;;5014566;28;20271;-63
2021/03/29 05:39:50;;;;;;;27.65;9.95;;;11.70;80.00;;;;;;5013484;28;20237;-64
2021/03/29 05:42:18;;;;;;;18.65;8.63;;;11.80;80.00;;;;;;5010417;28;20204;-64
2021/03/29 05:44:45;;;;;;;16.52;8.27;;;11.80;79.00;;;;;;5009933;28;20534;-64
2021/03/29 05:47:16;;;;;;;17.80;8.85;;;12.10;78.10;;;;;;5002808;28;20212;-64
2021/03/29 05:49:43;;;;;;;23.50;8.20;;;12.20;77.80;;;;;;4996796;28;20241;-65
2021/03/29 05:52:10;;;;;;;21.88;9.75;;;12.50;76.10;;;;;;4999853;28;20260;-64
2021/03/29 05:54:39;;;;;;;13.10;7.90;;;12.70;75.40;;;;;;5006291;28;20642;-63
2021/03/29 05:57:06;;;;;;;15.68;8.35;;;13.20;73.80;;;;;;5006324;28;20206;-63
2021/03/29 06:01:59;;;;;;;13.85;7.53;;;13.80;71.30;;;;;;4999256;28;20230;-64
2021/03/29 06:04:48;;;;;;;13.27;8.50;;;13.80;71.60;;;;;;5005166;28;20276;-64
2021/03/29 06:07:23;;;;;;;15.63;8.15;;;13.70;70.20;;;;;;4993588;28;20210;-64
2021/03/29 06:09:54;;;;;;;14.65;8.52;;;13.40;71.00;;;;;;4999493;28;20201;-65
2021/03/29 06:12:22;;;;;;;17.45;9.40;;;13.40;71.50;;;;;;4985111;28;20221;-64
2021/03/29 06:15:03;;;;;;;11.70;7.32;;;13.20;72.10;;;;;;5004957;28;20515;-63
2021/03/29 06:17:30;;;;;;;15.65;8.05;;;13.10;72.10;;;;;;5004852;28;20209;-63
2021/03/29 06:19:59;;;;;;;17.77;8.80;;;13.00;73.10;;;;;;5005655;28;20232;-65
2021/03/29 06:22:34;;;;;;;12.82;7.20;;;13.10;72.30;;;;;;5006410;28;20205;-64
2021/03/29 06:25:21;;;;;;;18.85;7.95;;;12.80;72.80;;;;;;4993014;28;20213;-65
2021/03/29 06:27:51;;;;;;;14.52;7.90;;;13.00;73.70;;;;;;4992872;28;20206;-64
2021/03/29 06:30:19;;;;;;;11.05;6.88;;;13.30;73.40;;;;;;4989463;28;20527;-64
2021/03/29 06:33:08;;;;;;;19.17;8.52;;;13.20;72.50;;;;;;4997853;28;20210;-65
2021/03/29 06:35:40;;;;;;;11.63;7.80;;;13.40;71.90;;;;;;5010624;28;20205;-65
2021/03/29 06:38:12;;;;;;;14.65;7.80;;;13.70;71.30;;;;;;5013188;28;20225;-64
2021/03/29 06:40:50;;;;;;;21.73;7.65;;;13.90;70.10;;;;;;4998266;28;20275;-65
2021/03/29 06:43:31;;;;;;;15.07;7.25;;;14.00;68.40;;;;;;4975757;28;20206;-65
2021/03/29 06:46:02;;;;;;;11.20;7.40;;;14.30;68.20;;;;;;4992761;28;20212;-65
2021/03/29 06:48:33;;;;;;;9.30;7.43;;;14.40;67.40;;;;;;4997772;28;20245;-65
2021/03/29 06:51:07;;;;;;;14.68;7.38;;;14.40;66.80;;;;;;4991703;28;20540;-65
2021/03/29 06:53:38;;;;;;;10.10;7.35;;;14.40;66.70;;;;;;4990262;28;20209;-65
2021/03/29 06:56:25;;;;;;;11.95;8.15;;;14.40;66.80;;;;;;4990878;28;20210;-65
2021/03/29 06:58:54;;;;;;;12.05;7.88;;;14.60;65.90;;;;;;4998327;28;20217;-64
2021/03/29 07:01:25;;;;;;;8.98;6.97;;;14.60;65.60;;;;;;5009594;28;20548;-64
2021/03/29 07:03:54;;;;;;;12.65;7.35;;;14.60;64.40;;;;;;5004033;28;20206;-64
2021/03/29 07:06:25;;;;;;;14.07;7.53;;;14.80;65.10;;;;;;5003681;28;20273;-65
2021/03/29 07:08:53;;;;;;;13.30;8.07;;;15.10;63.00;;;;;;5004262;28;20210;-65
2021/03/29 07:11:21;;;;;;;17.08;8.35;;;15.50;62.30;;;;;;5007980;28;20228;-65
2021/03/29 07:13:48;;;;;;;14.98;8.05;;;15.80;60.50;;;;;;4999019;28;20207;-64
2021/03/29 07:16:18;;;;;;;18.20;8.45;;;15.80;59.60;;;;;;5000176;28;20249;-65
2021/03/29 07:18:46;;;;;;;12.63;8.00;;;15.60;60.40;;;;;;5000356;28;20198;-65
2021/03/29 07:21:16;;;;;;;17.13;8.67;;;15.50;61.50;;;;;;5003003;28;20860;-64
2021/03/29 07:23:43;;;;;;;14.53;8.53;;;15.70;60.40;;;;;;4997341;28;20473;-64
2021/03/29 07:26:35;;;;;;;10.20;7.57;;;16.20;59.40;;;;;;4997505;28;20443;-65
2021/03/29 07:29:25;;;;;;;13.57;7.80;;;16.40;58.20;;;;;;4980567;28;20458;-65
2021/03/29 07:31:54;;;;;;;17.03;8.37;;;16.30;57.80;;;;;;4987135;28;20419;-63
2021/03/29 07:34:51;;;;;;;20.63;8.20;;;16.30;57.90;;;;;;4992562;28;20421;-65
2021/03/29 07:37:43;;;;;;;12.70;7.13;;;16.20;57.80;;;;;;4990930;28;20450;-63
2021/03/29 07:40:16;;;;;;;12.13;7.07;;;16.10;58.30;;;;;;4998865;28;20486;-63
2021/03/29 07:42:44;;;;;;;10.97;7.27;;;16.00;58.80;;;;;;5000778;28;20454;-63
2021/03/29 07:45:12;;;;;;;16.03;8.10;;;16.00;59.10;;;;;;4987697;28;21487;-64
2021/03/29 07:47:52;;;;;;;12.80;7.80;;;15.90;59.70;;;;;;4997187;28;20453;-64
2021/03/29 07:50:24;;;;;;;10.63;7.57;;;16.10;58.60;;;;;;4995706;28;20455;-65
2021/03/29 07:53:04;;;;;;;14.33;8.27;;;16.00;58.50;;;;;;5003452;28;20488;-64
2021/03/29 07:55:46;;;;;;;13.77;8.50;;;16.00;58.90;;;;;;4996653;28;20549;-64
2021/03/29 07:58:21;;;;;;;14.33;8.30;;;16.20;58.10;;;;;;5005113;28;20528;-65
2021/03/29 08:01:09;;;;;;;12.87;7.83;;;16.50;57.20;;;;;;5000457;28;20536;-65
2021/03/29 08:03:38;;;;;;;20.93;8.97;;;16.70;56.30;;;;;;4998415;28;20408;-64
2021/03/29 08:06:07;;;;;;;12.67;8.27;;;16.70;56.90;;;;;;4999776;28;20422;-65
2021/03/29 08:08:34;;;;;;;19.87;7.97;;;16.80;57.40;;;;;;5007411;28;20442;-65
2021/03/29 08:11:05;;;;;;;18.10;8.60;;;16.80;56.70;;;;;;5010919;28;20436;-65
2021/03/29 08:13:39;;;;;;;15.00;9.10;;;16.60;57.70;;;;;;4994023;28;20442;-64
2021/03/29 08:16:12;;;;;;;15.83;8.20;;;16.50;57.30;;;;;;5005116;28;20748;-65
2021/03/29 08:19:10;;;;;;;16.97;8.30;;;16.30;57.90;;;;;;5004074;28;20448;-64
2021/03/29 08:22:00;;;;;;;12.53;8.63;;;16.50;58.00;;;;;;5001423;28;20510;-65
2021/03/29 08:24:31;;;;;;;12.37;8.30;;;16.50;58.40;;;;;;5002216;28;20547;-65
2021/03/29 08:27:07;;;;;;;13.80;7.93;;;16.40;57.80;;;;;;5002205;28;20488;-64
2021/03/29 08:29:40;;;;;;;12.40;8.47;;;16.30;58.70;;;;;;5010056;28;20443;-64
2021/03/29 08:32:17;;;;;;;13.60;8.13;;;16.10;59.60;;;;;;4986072;28;20433;-65
2021/03/29 08:34:52;;;;;;;11.60;8.47;;;16.10;61.20;;;;;;4995114;28;20755;-64
2021/03/29 08:37:40;;;;;;;10.10;8.20;;;16.10;62.30;;;;;;5009096;28;20423;-65
2021/03/29 08:40:30;;;;;;;10.67;7.60;;;16.20;63.70;;;;;;5016396;28;20484;-66
2021/03/29 08:43:05;;;;;;;24.40;9.63;;;15.90;61.80;;;;;;4998777;28;20468;-64
2021/03/29 08:45:33;;;;;;;19.13;11.50;;;16.10;60.90;;;;;;4999696;28;20828;-64
2021/03/29 08:48:03;;;;;;;20.60;11.90;;;16.60;60.10;;;;;;5003395;28;20784;-65
2021/03/29 08:50:47;;;;;;;17.53;11.00;;;17.10;58.20;;;;;;5000668;28;20805;-64
2021/03/29 08:53:14;;;;;;;17.67;9.20;;;17.80;55.90;;;;;;5000459;28;20793;-64
2021/03/29 08:55:42;;;;;;;13.23;7.27;;;18.00;55.70;;;;;;5002686;28;20575;-64
2021/03/29 08:58:11;;;;;;;9.80;6.90;;;17.40;54.10;;;;;;5011771;28;20427;-65
2021/03/29 09:00:39;;;;;;;10.50;7.23;;;17.90;54.00;;;;;;5006736;28;20479;-65
2021/03/29 09:03:16;;;;;;;12.60;6.70;;;17.50;56.60;;;;;;4992759;28;20418;-65
2021/03/29 09:05:42;;;;;;;11.27;7.17;;;17.40;56.60;;;;;;5001102;28;20787;-65
2021/03/29 09:08:10;;;;;;;11.33;7.03;;;17.30;57.60;;;;;;4995193;28;20447;-64
2021/03/29 09:10:39;;;;;;;18.33;8.20;;;17.70;59.90;;;;;;4998897;28;20430;-65
2021/03/29 09:13:08;;;;;;;6.93;5.87;;;18.10;56.70;;;;;;4999912;28;20450;-64
2021/03/29 09:15:37;;;;;;;15.53;7.53;;;18.50;55.80;;;;;;5000951;28;20421;-64
2021/03/29 09:18:10;;;;;;;13.93;8.37;;;18.50;54.30;;;;;;5000493;28;20422;-64
2021/03/29 09:20:48;;;;;;;17.27;7.63;;;18.80;54.30;;;;;;5000048;28;20572;-64
2021/03/29 09:23:19;;;;;;;16.57;6.20;;;19.20;52.40;;;;;;4998399;28;20442;-64
2021/03/29 09:25:48;;;;;;;8.67;5.90;;;19.30;52.30;;;;;;4994663;28;20422;-66
2021/03/29 09:31:23;;;;;;;8.23;5.87;;;18.40;53.50;;;;;;4997603;28;20479;-66
2021/03/29 09:33:53;;;;;;;18.30;7.27;;;17.80;55.00;;;;;;4999722;28;20664;-66
2021/03/29 09:36:24;;;;;;;14.20;6.10;;;17.40;56.70;;;;;;4999659;28;20431;-65
2021/03/29 09:38:56;;;;;;;21.83;7.20;;;17.70;57.30;;;;;;5010063;28;20450;-64
2021/03/29 09:41:24;;;;;;;12.60;6.20;;;17.90;56.70;;;;;;5004423;28;20516;-64
2021/03/29 09:43:56;;;;;;;8.10;6.60;;;17.90;57.40;;;;;;4999924;28;20901;-65
2021/03/29 09:46:31;;;;;;;9.73;5.70;;;18.40;57.50;;;;;;4999379;28;20426;-64
2021/03/29 09:49:14;;;;;;;21.73;7.30;;;18.70;55.60;;;;;;4999600;28;20453;-65
2021/03/29 09:51:44;;;;;;;14.87;6.50;;;18.80;55.00;;;;;;5005511;28;20792;-65
2021/03/29 09:54:25;;;;;;;6.27;5.63;;;19.00;53.90;;;;;;5010796;28;20442;-64
2021/03/29 09:56:53;;;;;;;11.10;5.23;;;18.70;54.40;;;;;;5000146;28;20795;-66
2021/03/29 09:59:27;;;;;;;15.00;7.00;;;18.40;55.90;;;;;;4999097;28;20422;-64
2021/03/29 10:01:53;;;;;;;8.60;5.80;;;18.60;55.10;;;;;;5006460;28;20700;-65
2021/03/29 10:04:22;;;;;;;9.90;6.80;;;18.70;55.10;;;;;;4991056;28;20458;-65
2021/03/29 10:06:50;;;;;;;11.73;6.20;;;18.70;55.10;;;;;;4988043;28;20724;-65
2021/03/29 10:09:31;;;;;;;7.83;5.90;;;18.40;55.50;;;;;;4998684;28;20671;-64
2021/03/29 10:11:58;;;;;;;9.47;6.07;;;18.10;59.30;;;;;;4999521;28;20704;-65
2021/03/29 10:14:33;;;;;;;8.40;5.70;;;17.80;59.20;;;;;;4998049;28;20422;-66
2021/03/29 10:17:01;;;;;;;15.63;6.97;;;17.50;59.40;;;;;;4999361;28;20458;-65
2021/03/29 10:19:32;;;;;;;12.00;6.17;;;17.10;64.70;;;;;;4998568;28;20422;-64
2021/03/29 10:22:11;;;;;;;8.27;6.43;;;16.70;69.30;;;;;;4999074;28;20466;-64
2021/03/29 10:25:06;;;;;;;10.47;5.77;;;16.50;70.20;;;;;;5001789;28;20404;-65
2021/03/29 10:27:53;;;;;;;8.37;6.63;;;16.30;71.20;;;;;;4998864;28;20444;-64
2021/03/29 10:30:20;;;;;;;10.00;6.80;;;16.50;73.80;;;;;;4999001;28;20686;-64
2021/03/29 10:32:50;;;;;;;7.77;6.13;;;16.80;75.00;;;;;;4998044;28;20418;-64
2021/03/29 10:35:18;;;;;;;10.73;6.40;;;16.90;74.30;;;;;;4998765;28;20425;-64
2021/03/29 10:37:44;;;;;;;11.33;7.50;;;17.10;71.20;;;;;;4998063;28;20444;-65
2021/03/29 10:40:12;;;;;;;10.90;6.80;;;17.10;74.00;;;;;;4998962;28;20469;-64
2021/03/29 10:42:40;;;;;;;8.90;6.37;;;17.20;70.80;;;;;;4995494;28;20450;-64
2021/03/29 10:45:14;;;;;;;11.60;7.70;;;17.30;70.10;;;;;;4984683;28;20472;-65
2021/03/29 10:47:42;;;;;;;10.93;7.03;;;17.70;70.40;;;;;;4980438;28;20801;-65
2021/03/29 10:50:11;;;;;;;14.03;8.37;;;18.20;71.80;;;;;;4991902;28;20439;-66
2021/03/29 10:52:38;;;;;;;12.03;6.70;;;18.10;66.50;;;;;;5010327;28;20413;-64
2021/03/29 10:55:06;;;;;;;9.83;7.60;;;18.20;64.40;;;;;;4999794;28;20467;-64
2021/03/29 10:57:33;;;;;;;13.50;8.00;;;18.30;68.30;;;;;;5009532;28;20508;-65
2021/03/29 11:00:00;;;;;;;12.93;6.93;;;18.30;64.50;;;;;;4993897;28;20457;-65
2021/03/29 11:02:29;;;;;;;8.07;6.67;;;18.20;64.00;;;;;;4997648;28;20433;-64
2021/03/29 11:04:56;;;;;;;9.80;8.80;;;18.40;64.60;;;;;;4998103;28;20447;-65
2021/03/29 11:07:22;;;;;;;11.00;6.97;;;18.50;65.20;;;;;;4997025;28;20422;-65
2021/03/29 11:09:49;;;;;;;12.10;7.50;;;18.50;66.20;;;;;;4991741;28;20440;-65
2021/03/29 11:12:16;;;;;;;11.90;7.13;;;18.40;64.60;;;;;;5004976;28;20434;-67
2021/03/29 11:14:42;;;;;;;8.13;7.07;;;18.50;63.60;;;;;;4999587;28;20443;-65
2021/03/29 11:17:10;;;;;;;15.20;7.90;;;18.40;63.70;;;;;;5003108;28;20740;-65
2021/03/29 11:19:37;;;;;;;18.17;7.70;;;18.40;67.20;;;;;;4997740;28;20422;-65
2021/03/29 11:22:03;;;;;;;9.70;7.50;;;18.50;72.20;;;;;;4990504;28;20415;-64
2021/03/29 11:24:30;;;;;;;10.50;7.77;;;18.40;66.00;;;;;;4999288;28;20421;-65
2021/03/29 11:26:57;;;;;;;12.20;8.23;;;18.40;64.30;;;;;;5003506;28;20637;-64
2021/03/29 11:29:23;;;;;;;25.30;8.40;;;18.20;67.40;;;;;;4996866;28;20461;-64
2021/03/29 11:31:50;;;;;;;20.43;8.07;;;18.40;66.80;;;;;;4998197;28;20422;-65
2021/03/29 11:34:17;;;;;;;9.27;7.50;;;18.80;65.40;;;;;;5011516;28;20465;-65
2021/03/29 11:36:44;;;;;;;10.33;8.20;;;18.90;64.90;;;;;;5001848;28;20752;-65
2021/03/29 11:39:12;;;;;;;13.10;7.90;;;19.20;64.40;;;;;;4997391;28;20448;-65
2021/03/29 11:41:39;;;;;;;12.17;7.50;;;19.10;62.70;;;;;;4996818;28;20457;-65
2021/03/29 11:44:06;;;;;;;10.57;8.17;;;18.70;66.40;;;;;;4997695;28;20440;-64
2021/03/29 11:46:33;;;;;;;12.10;8.63;;;19.20;70.00;;;;;;5001007;28;20417;-65
2021/03/29 11:49:00;;;;;;;19.33;8.00;;;19.00;66.20;;;;;;5006713;28;20470;-64
2021/03/29 11:51:28;;;;;;;17.30;8.17;;;19.00;68.20;;;;;;5004572;28;20425;-65
2021/03/29 11:53:54;;;;;;;8.90;8.00;;;19.10;67.90;;;;;;5000650;28;20770;-64
2021/03/29 11:56:21;;;;;;;9.70;7.03;;;19.20;70.20;;;;;;5010132;28;20453;-64
2021/03/29 11:58:49;;;;;;;9.23;6.73;;;19.00;64.80;;;;;;4998032;28;20649;-65
2021/03/29 12:01:30;;;;;;;10.43;7.63;;;19.00;68.00;;;;;;5004587;28;20659;-64
2021/03/29 12:04:03;;;;;;;10.70;6.80;;;19.10;64.10;;;;;;4995501;28;20419;-64
2021/03/29 12:06:38;;;;;;;9.30;7.60;;;19.00;64.40;;;;;;5003344;28;20604;-67
2021/03/29 12:12:01;;;;;;;18.13;9.10;;;19.20;63.30;;;;;;5010047;28;20420;-66
2021/03/29 12:14:30;;;;;;;14.30;9.30;;;19.20;64.90;;;;;;5007612;28;20595;-66
2021/03/29 12:16:57;;;;;;;14.00;11.20;;;19.20;66.80;;;;;;5005371;28;20425;-66
2021/03/29 12:19:24;;;;;;;13.80;9.33;;;19.70;64.10;;;;;;4985791;28;20531;-65
2021/03/29 12:21:56;;;;;;;11.60;8.83;;;20.00;64.60;;;;;;5007844;28;20452;-64
2021/03/29 12:24:26;;;;;;;12.23;7.33;;;19.90;60.00;;;;;;4995296;28;20441;-64
2021/03/29 12:26:54;;;;;;;16.53;8.57;;;19.60;59.40;;;;;;5001881;28;20422;-66
2021/03/29 12:29:35;;;;;;;15.90;8.00;;;19.70;58.30;;;;;;4970014;28;20514;-65
2021/03/29 12:32:04;;;;;;;23.70;8.70;;;19.70;58.80;;;;;;4991152;28;20415;-64
2021/03/29 12:34:31;;;;;;;11.30;7.27;;;19.80;60.10;;;;;;4997983;28;20405;-64
2021/03/29 12:36:59;;;;;;;17.10;7.90;;;19.60;57.90;;;;;;5000918;28;20450;-65
2021/03/29 12:39:46;;;;;;;20.87;7.90;;;19.60;59.40;;;;;;5000589;28;20452;-65
2021/03/29 12:42:16;;;;;;;15.93;7.83;;;19.50;58.20;;;;;;4999289;28;20447;-65
2021/03/29 12:44:43;;;;;;;13.43;7.87;;;19.20;60.80;;;;;;4981931;28;20443;-66
2021/03/29 12:47:13;;;;;;;11.93;8.43;;;19.10;60.00;;;;;;5009594;28;20600;-65
2021/03/29 12:49:39;;;;;;;11.60;9.07;;;19.00;60.60;;;;;;5003448;28;20461;-66
2021/03/29 12:52:06;;;;;;;18.33;10.00;;;18.80;61.00;;;;;;4990822;28;20457;-64
2021/03/29 12:54:35;;;;;;;17.33;8.97;;;18.90;62.20;;;;;;5000972;28;20446;-64
2021/03/29 12:57:03;;;;;;;14.63;9.63;;;18.70;62.20;;;;;;4999623;28;20756;-65
2021/03/29 12:59:31;;;;;;;12.50;9.30;;;18.60;63.60;;;;;;4999847;28;20422;-64
2021/03/29 13:01:58;;;;;;;13.93;9.00;;;18.20;63.50;;;;;;5007030;28;20504;-64
2021/03/29 13:12:21;;;;;;;17.23;8.80;;;17.90;65.80;;;;;;4994029;28;20417;-66
2021/03/29 13:15:06;;;;;;;13.47;10.20;;;17.90;66.80;;;;;;4992673;28;20430;-67